createdAt,value
2022-11-20T00:02:31.621Z,27.08
2022-11-20T00:05:17.126Z,27.02
2022-11-20T00:08:02.686Z,27.60
2022-11-20T00:10:48.205Z,29.02
2022-11-20T00:13:34.542Z,28.33
2022-11-20T00:16:21.991Z,27.38
2022-11-20T00:19:07.989Z,28.98
2022-11-20T00:21:54.828Z,27.67
2022-11-20T00:24:43.153Z,27.40
2022-11-20T00:27:29.049Z,27.85
2022-11-20T00:30:15.339Z,27.48
2022-11-20T00:33:00.835Z,29.00
2022-11-20T00:35:46.474Z,28.42
2022-11-20T00:38:33.139Z,28.98
2022-11-20T00:41:18.923Z,28.05
2022-11-20T00:44:04.885Z,29.75
2022-11-20T00:46:50.171Z,30.00
2022-11-20T00:49:35.959Z,26.92
2022-11-20T00:52:21.605Z,27.25
2022-11-20T00:55:07.421Z,27.60
2022-11-20T00:57:53.116Z,26.98
2022-11-20T01:00:38.628Z,26.08
2022-11-20T01:03:27.029Z,26.23
2022-11-20T01:06:18.453Z,25.77
2022-11-20T01:09:11.694Z,24.58
2022-11-20T01:11:57.732Z,23.60
2022-11-20T01:14:43.296Z,23.85
2022-11-20T01:17:28.925Z,23.63
2022-11-20T01:20:14.593Z,23.83
2022-11-20T01:23:00.210Z,23.83
2022-11-20T01:25:45.782Z,23.15
2022-11-20T01:28:31.772Z,22.58
2022-11-20T01:31:20.476Z,23.13
2022-11-20T01:34:12.051Z,24.25
2022-11-20T01:36:57.520Z,23.00
2022-11-20T01:39:43.132Z,24.70
2022-11-20T01:42:47.830Z,23.50
2022-11-20T01:46:01.565Z,23.45
2022-11-20T01:48:46.888Z,23.00
2022-11-20T01:51:40.495Z,23.17
2022-11-20T01:57:20.820Z,23.42
2022-11-20T02:00:10.437Z,23.13
2022-11-20T02:03:08.097Z,23.10
2022-11-20T02:06:00.376Z,23.67
2022-11-20T02:08:46.057Z,24.60
2022-11-20T02:11:32.544Z,23.40
2022-11-20T02:14:18.265Z,22.58
2022-11-20T02:17:04.168Z,22.83
2022-11-20T02:19:50.157Z,22.95
2022-11-20T02:22:59.585Z,23.05
2022-11-20T02:25:46.931Z,22.77
2022-11-20T02:28:33.170Z,21.63
2022-11-20T02:31:18.913Z,21.73
2022-11-20T02:34:04.654Z,21.58
2022-11-20T02:36:51.808Z,22.10
2022-11-20T02:39:37.937Z,20.65
2022-11-20T02:42:23.377Z,21.65
2022-11-20T02:45:09.557Z,21.88
2022-11-20T02:47:55.153Z,21.58
2022-11-20T02:50:41.442Z,23.15
2022-11-20T02:53:27.099Z,22.63
2022-11-20T02:56:12.648Z,21.80
2022-11-20T02:58:58.269Z,22.23
2022-11-20T03:01:43.840Z,21.55
2022-11-20T03:04:29.459Z,20.83
2022-11-20T03:07:15.226Z,21.23
2022-11-20T03:10:01.021Z,21.65
2022-11-20T03:12:46.638Z,20.63
2022-11-20T03:15:32.288Z,21.63
2022-11-20T03:18:17.827Z,22.60
2022-11-20T03:21:03.781Z,21.25
2022-11-20T03:23:49.193Z,21.85
2022-11-20T03:26:34.905Z,22.70
2022-11-20T03:29:20.946Z,22.80
2022-11-20T03:32:06.608Z,24.67
2022-11-20T03:34:52.273Z,22.65
2022-11-20T03:37:37.762Z,23.52
2022-11-20T03:40:23.293Z,22.58
2022-11-20T03:43:10.777Z,23.13
2022-11-20T03:45:56.563Z,24.67
2022-11-20T03:48:43.678Z,24.25
2022-11-20T03:51:33.511Z,22.52
2022-11-20T03:54:19.048Z,21.63
2022-11-20T03:57:04.761Z,20.70
2022-11-20T03:59:50.489Z,20.17
2022-11-20T04:02:36.059Z,21.52
2022-11-20T04:05:21.869Z,20.33
2022-11-20T04:08:07.450Z,19.65
2022-11-20T04:10:52.996Z,20.88
2022-11-20T04:13:38.946Z,20.33
2022-11-20T04:16:26.574Z,20.73
2022-11-20T04:19:14.785Z,19.73
2022-11-20T04:22:00.510Z,21.00
2022-11-20T04:24:45.895Z,19.25
2022-11-20T04:27:31.993Z,20.48
2022-11-20T04:30:17.593Z,20.77
2022-11-20T04:33:02.929Z,20.85
2022-11-20T04:35:49.213Z,20.38
2022-11-20T04:38:35.158Z,19.92
2022-11-20T04:41:22.594Z,20.55
2022-11-20T04:44:08.281Z,19.02
2022-11-20T04:46:53.866Z,19.90
2022-11-20T04:49:39.635Z,21.67
2022-11-20T04:52:25.256Z,22.27
2022-11-20T04:55:10.734Z,21.88
2022-11-20T04:57:56.602Z,20.13
2022-11-20T05:00:41.999Z,19.60
2022-11-20T05:03:27.338Z,19.75
2022-11-20T05:06:17.695Z,19.20
2022-11-20T05:09:03.526Z,20.73
2022-11-20T05:11:51.494Z,20.92
2022-11-20T05:14:37.069Z,19.90
2022-11-20T05:17:22.689Z,20.50
2022-11-20T05:20:09.202Z,21.27
2022-11-20T05:22:58.395Z,21.10
2022-11-20T05:25:44.125Z,20.58
2022-11-20T05:28:31.161Z,20.52
2022-11-20T05:31:26.227Z,20.65
2022-11-20T05:34:12.948Z,21.00
2022-11-20T05:36:58.616Z,20.85
2022-11-20T05:39:44.157Z,21.05
2022-11-20T05:42:32.229Z,20.77
2022-11-20T05:45:18.147Z,22.00
2022-11-20T05:48:04.044Z,21.48
2022-11-20T05:50:49.705Z,21.08
2022-11-20T05:53:36.875Z,20.50
2022-11-20T05:56:23.318Z,21.23
2022-11-20T05:59:09.236Z,21.48
2022-11-20T06:01:54.999Z,21.25
2022-11-20T06:04:40.585Z,21.30
2022-11-20T06:07:26.269Z,20.08
2022-11-20T06:10:12.426Z,20.02
2022-11-20T06:13:01.346Z,20.50
2022-11-20T06:15:54.162Z,19.98
2022-11-20T06:18:40.399Z,20.17
2022-11-20T06:21:26.344Z,20.23
2022-11-20T06:24:12.642Z,20.48
2022-11-20T06:26:58.229Z,20.20
2022-11-20T06:29:43.800Z,20.88
2022-11-20T06:32:29.414Z,19.90
2022-11-20T06:35:14.993Z,22.08
2022-11-20T06:38:00.863Z,20.00
2022-11-20T06:40:46.483Z,19.13
2022-11-20T06:43:32.176Z,20.50
2022-11-20T06:46:19.275Z,20.27
2022-11-20T06:49:04.879Z,19.60
2022-11-20T06:51:50.357Z,20.50
2022-11-20T06:54:36.136Z,20.45
2022-11-20T06:57:21.540Z,19.73
2022-11-20T07:00:07.586Z,21.17
2022-11-20T07:02:53.304Z,20.20
2022-11-20T07:05:42.412Z,19.10
2022-11-20T07:08:28.738Z,20.48
2022-11-20T07:11:14.945Z,20.90
2022-11-20T07:14:00.717Z,20.02
2022-11-20T07:16:46.428Z,19.83
2022-11-20T07:19:31.901Z,20.77
2022-11-20T07:22:17.370Z,22.05
2022-11-20T07:25:03.066Z,21.52
2022-11-20T07:27:48.589Z,20.88
2022-11-20T07:30:34.353Z,22.10
2022-11-20T07:33:20.515Z,23.33
2022-11-20T07:36:06.185Z,27.27
2022-11-20T07:38:51.917Z,27.85
2022-11-20T07:41:37.535Z,28.15
2022-11-20T07:44:23.074Z,27.60
2022-11-20T07:47:08.631Z,30.85
2022-11-20T07:49:54.266Z,25.30
2022-11-20T07:52:40.070Z,24.70
2022-11-20T07:55:26.341Z,25.25
2022-11-20T07:58:12.046Z,23.73
2022-11-20T08:00:57.685Z,23.10
2022-11-20T08:03:43.228Z,23.00
2022-11-20T08:06:28.854Z,20.45
2022-11-20T08:09:14.277Z,21.83
2022-11-20T08:12:18.589Z,22.17
2022-11-20T08:15:11.384Z,22.35
2022-11-20T08:21:12.736Z,22.58
2022-11-20T08:23:59.288Z,21.73
2022-11-20T08:26:45.033Z,21.60
2022-11-20T08:29:30.905Z,22.10
2022-11-20T08:32:16.805Z,23.33
2022-11-20T08:35:02.293Z,22.30
2022-11-20T08:37:49.087Z,23.02
2022-11-20T08:40:34.787Z,24.08
2022-11-20T08:43:20.261Z,23.48
2022-11-20T08:46:05.965Z,23.58
2022-11-20T08:48:54.324Z,25.80
2022-11-20T08:51:40.760Z,26.13
2022-11-20T08:54:26.417Z,26.27
2022-11-20T08:57:12.572Z,25.63
2022-11-20T09:00:06.076Z,26.85
2022-11-20T09:02:53.181Z,27.85
2022-11-20T09:05:38.656Z,27.15
2022-11-20T09:08:24.184Z,27.80
2022-11-20T09:11:10.341Z,26.85
2022-11-20T09:13:55.938Z,25.95
2022-11-20T09:16:42.055Z,28.35
2022-11-20T09:19:35.456Z,26.05
2022-11-20T09:22:21.467Z,24.83
2022-11-20T09:25:07.450Z,24.63
2022-11-20T09:27:57.391Z,25.30
2022-11-20T09:30:42.806Z,24.70
2022-11-20T09:33:28.888Z,24.35
2022-11-20T09:36:14.365Z,23.67
2022-11-20T09:39:00.188Z,25.70
2022-11-20T09:42:28.538Z,26.20
2022-11-20T09:45:24.076Z,27.63
2022-11-20T09:48:36.453Z,25.27
2022-11-20T09:51:23.209Z,26.17
2022-11-20T09:54:24.313Z,25.42
2022-11-20T09:57:15.457Z,26.40
2022-11-20T10:00:03.458Z,26.40
2022-11-20T10:03:05.046Z,24.75
2022-11-20T10:05:55.269Z,24.75
2022-11-20T10:08:46.928Z,26.17
2022-11-20T10:11:51.131Z,28.30
2022-11-20T10:14:45.985Z,28.67
2022-11-20T10:17:50.357Z,29.77
2022-11-20T10:20:47.229Z,29.13
2022-11-20T10:23:44.755Z,30.92
2022-11-20T10:27:02.030Z,30.75
2022-11-20T10:30:09.807Z,30.25
2022-11-20T10:33:07.835Z,29.85
2022-11-20T10:36:17.345Z,30.75
2022-11-20T10:39:17.159Z,30.50
2022-11-20T10:42:03.316Z,31.85
2022-11-20T10:45:05.823Z,28.83
2022-11-20T10:47:55.944Z,30.27
2022-11-20T10:50:50.137Z,30.23
2022-11-20T10:53:50.735Z,31.27
2022-11-20T10:56:51.377Z,32.03
2022-11-20T10:59:56.741Z,32.00
2022-11-20T11:02:54.181Z,29.95
2022-11-20T11:06:06.364Z,30.10
2022-11-20T11:08:54.542Z,29.63
2022-11-20T11:11:40.210Z,30.58
2022-11-20T11:14:25.788Z,30.10
2022-11-20T11:17:27.840Z,30.40
2022-11-20T11:20:21.100Z,29.40
2022-11-20T11:23:27.521Z,29.83
2022-11-20T11:26:24.337Z,29.98
2022-11-20T11:29:18.955Z,31.05
2022-11-20T11:32:15.833Z,32.45
2022-11-20T11:35:07.519Z,27.73
2022-11-20T11:37:55.492Z,28.67
2022-11-20T11:40:41.859Z,29.63
2022-11-20T11:43:50.941Z,27.52
2022-11-20T11:46:38.097Z,28.00
2022-11-20T11:49:25.425Z,26.98
2022-11-20T11:52:18.755Z,27.23
2022-11-20T11:55:11.530Z,25.00
2022-11-20T11:58:05.801Z,25.63
2022-11-20T12:01:29.064Z,25.95
2022-11-20T12:04:18.618Z,25.60
2022-11-20T12:07:46.217Z,23.27
2022-11-20T12:10:38.859Z,23.42
2022-11-20T12:13:43.173Z,21.95
2022-11-20T12:16:31.384Z,21.60
2022-11-20T12:19:17.741Z,21.45
2022-11-20T12:22:37.245Z,23.23
2022-11-20T12:25:37.689Z,23.00
2022-11-20T12:29:00.918Z,24.10
2022-11-20T12:32:05.315Z,23.33
2022-11-20T12:35:00.718Z,23.20
2022-11-20T12:38:18.677Z,22.33
2022-11-20T12:41:07.393Z,21.83
2022-11-20T12:44:37.660Z,23.70
2022-11-20T12:47:38.342Z,24.25
2022-11-20T12:51:13.511Z,24.23
2022-11-20T12:54:16.147Z,24.52
2022-11-20T12:57:04.374Z,25.65
2022-11-20T13:00:11.939Z,24.88
2022-11-20T13:03:32.926Z,21.10
2022-11-20T13:06:20.017Z,24.55
2022-11-20T13:09:15.237Z,25.48
2022-11-20T13:12:33.937Z,26.70
2022-11-20T13:15:32.274Z,25.77
2022-11-20T13:18:18.776Z,26.23
2022-11-20T13:21:35.801Z,25.55
2022-11-20T13:24:24.956Z,27.13
2022-11-20T13:27:13.936Z,26.25
2022-11-20T13:30:23.086Z,25.75
2022-11-20T13:33:23.841Z,24.92
2022-11-20T13:36:28.054Z,24.67
2022-11-20T13:39:24.451Z,22.27
2022-11-20T13:42:13.303Z,24.50
2022-11-20T13:45:09.388Z,23.55
2022-11-20T13:47:56.581Z,22.35
2022-11-20T13:50:56.393Z,24.73
2022-11-20T13:54:08.381Z,24.13
2022-11-20T13:57:00.325Z,23.48
2022-11-20T14:00:05.808Z,22.05
2022-11-20T14:03:16.811Z,23.10
2022-11-20T14:06:05.226Z,21.88
2022-11-20T14:08:51.804Z,22.25
2022-11-20T14:11:37.389Z,22.38
2022-11-20T14:14:25.835Z,22.35
2022-11-20T14:17:30.114Z,20.95
2022-11-20T14:20:16.490Z,22.90
2022-11-20T14:23:02.384Z,22.48
2022-11-20T14:25:47.764Z,22.25
2022-11-20T14:28:33.569Z,22.48
2022-11-20T14:31:28.014Z,22.17
2022-11-20T14:34:21.324Z,22.33
2022-11-20T14:37:16.758Z,23.17
2022-11-20T14:40:02.645Z,22.90
2022-11-20T14:42:48.351Z,20.88
2022-11-20T14:45:33.810Z,23.10
2022-11-20T14:48:22.425Z,22.90
2022-11-20T14:51:11.634Z,23.65
2022-11-20T14:53:57.266Z,21.20
2022-11-20T14:56:43.624Z,22.75
2022-11-20T14:59:34.533Z,24.48
2022-11-20T15:02:20.371Z,22.92
2022-11-20T15:05:06.181Z,23.88
2022-11-20T15:08:05.560Z,23.60
2022-11-20T15:10:52.191Z,24.25
2022-11-20T15:13:39.416Z,23.77
2022-11-20T15:16:27.875Z,24.55
2022-11-20T15:19:35.306Z,24.20
2022-11-20T15:22:21.236Z,25.17
2022-11-20T15:25:17.036Z,24.48
2022-11-20T15:28:02.970Z,24.88
2022-11-20T15:30:50.218Z,25.13
2022-11-20T15:33:36.061Z,26.60
2022-11-20T15:36:21.536Z,26.50
2022-11-20T15:39:10.280Z,27.50
2022-11-20T15:41:56.225Z,27.73
2022-11-20T15:44:41.813Z,25.65
2022-11-20T15:47:36.160Z,26.48
2022-11-20T15:50:23.899Z,26.95
2022-11-20T15:53:11.232Z,27.67
2022-11-20T15:55:57.005Z,26.00
2022-11-20T15:58:43.197Z,25.95
2022-11-20T16:01:28.958Z,27.02
2022-11-20T16:04:16.616Z,27.08
2022-11-20T16:07:02.559Z,28.08
2022-11-20T16:09:48.272Z,27.50
2022-11-20T16:12:52.502Z,30.25
2022-11-20T16:15:46.833Z,29.92
2022-11-20T16:18:33.919Z,28.45
2022-11-20T16:21:19.794Z,28.42
2022-11-20T16:24:07.323Z,28.20
2022-11-20T16:26:54.782Z,28.00
2022-11-20T16:29:41.385Z,28.65
2022-11-20T16:32:27.331Z,27.13
2022-11-20T16:35:12.753Z,27.52
2022-11-20T16:37:59.227Z,27.00
2022-11-20T16:40:44.998Z,27.73
2022-11-20T16:43:30.785Z,27.55
2022-11-20T16:46:18.105Z,27.58
2022-11-20T16:49:11.572Z,27.80
2022-11-20T16:51:57.185Z,27.95
2022-11-20T16:54:42.626Z,27.25
2022-11-20T16:57:29.876Z,27.30
2022-11-20T17:00:19.662Z,27.67
2022-11-20T17:03:06.410Z,27.35
2022-11-20T17:05:52.068Z,27.13
2022-11-20T17:08:38.164Z,28.45
2022-11-20T17:11:24.830Z,27.67
2022-11-20T17:14:12.062Z,27.25
2022-11-20T17:16:58.561Z,28.05
2022-11-20T17:19:44.150Z,29.65
2022-11-20T17:22:29.775Z,27.48
2022-11-20T17:25:15.541Z,29.15
2022-11-20T17:28:01.317Z,29.92
2022-11-20T17:30:47.118Z,31.48
2022-11-20T17:33:35.796Z,31.95
2022-11-20T17:36:21.979Z,35.40
2022-11-20T17:39:07.917Z,38.58
2022-11-20T17:42:25.695Z,39.42
2022-11-20T17:45:11.107Z,37.53
2022-11-20T17:47:57.120Z,35.80
2022-11-20T17:50:42.685Z,36.72
2022-11-20T17:53:29.826Z,36.92
2022-11-20T17:56:47.992Z,36.13
2022-11-20T17:59:33.323Z,36.97
2022-11-20T18:02:20.141Z,36.92
2022-11-20T18:05:06.017Z,36.05
2022-11-20T18:07:53.623Z,37.80
2022-11-20T18:10:39.499Z,37.15
2022-11-20T18:13:47.767Z,38.33
2022-11-20T18:16:37.726Z,46.40
2022-11-20T18:19:29.989Z,38.72
2022-11-20T18:22:19.294Z,38.85
2022-11-20T18:25:05.130Z,37.00
2022-11-20T18:27:56.453Z,35.80
2022-11-20T18:30:42.149Z,34.30
2022-11-20T18:33:30.465Z,34.28
2022-11-20T18:36:24.477Z,32.90
2022-11-20T18:39:12.224Z,36.30
2022-11-20T18:42:16.228Z,36.17
2022-11-20T18:45:04.461Z,37.45
2022-11-20T18:47:50.122Z,39.08
2022-11-20T18:50:35.693Z,38.80
2022-11-20T18:53:21.965Z,37.75
2022-11-20T18:56:09.411Z,38.40
2022-11-20T18:59:00.196Z,38.85
2022-11-20T19:01:48.047Z,39.83
2022-11-20T19:04:34.219Z,40.17
2022-11-20T19:07:19.786Z,39.22
2022-11-20T19:10:07.034Z,37.50
2022-11-20T19:12:53.031Z,39.88
2022-11-20T19:15:38.692Z,37.28
2022-11-20T19:18:24.394Z,38.78
2022-11-20T19:21:12.474Z,40.13
2022-11-20T19:24:00.096Z,40.05
2022-11-20T19:26:45.726Z,41.28
2022-11-20T19:29:31.440Z,40.38
2022-11-20T19:32:20.574Z,41.53
2022-11-20T19:35:06.601Z,42.80
2022-11-20T19:37:52.505Z,43.85
2022-11-20T19:40:38.312Z,42.30
2022-11-20T19:43:24.151Z,40.65
2022-11-20T19:46:09.997Z,41.55
2022-11-20T19:48:56.256Z,39.03
2022-11-20T19:51:49.763Z,38.15
2022-11-20T19:54:35.328Z,40.15
2022-11-20T19:57:21.008Z,42.30
2022-11-20T20:00:07.739Z,43.65
2022-11-20T20:02:53.879Z,38.05
2022-11-20T20:05:39.749Z,35.97
2022-11-20T20:08:25.528Z,34.42
2022-11-20T20:11:15.308Z,31.38
2022-11-20T20:14:10.330Z,33.13
2022-11-20T20:16:56.426Z,32.25
2022-11-20T20:19:41.825Z,32.40
2022-11-20T20:22:27.339Z,28.85
2022-11-20T20:25:13.433Z,28.85
2022-11-20T20:27:59.145Z,28.88
2022-11-20T20:30:44.644Z,28.25
2022-11-20T20:33:30.298Z,28.30
2022-11-20T20:36:17.923Z,29.52
2022-11-20T20:39:09.220Z,30.40
2022-11-20T20:41:54.896Z,30.77
2022-11-20T20:44:59.174Z,31.73
2022-11-20T20:47:45.487Z,29.77
2022-11-20T20:50:31.081Z,29.25
2022-11-20T20:53:16.700Z,31.05
2022-11-20T20:56:02.549Z,29.98
2022-11-20T20:58:48.236Z,28.55
2022-11-20T21:01:33.597Z,30.90
2022-11-20T21:04:19.256Z,32.05
2022-11-20T21:07:04.832Z,35.05
2022-11-20T21:09:50.596Z,35.78
2022-11-20T21:12:36.105Z,37.95
2022-11-20T21:15:21.719Z,37.92
2022-11-20T21:18:07.880Z,34.13
2022-11-20T21:21:12.178Z,33.50
2022-11-20T21:23:58.211Z,31.92
2022-11-20T21:26:43.665Z,32.08
2022-11-20T21:29:30.286Z,32.20
2022-11-20T21:32:15.945Z,32.80
2022-11-20T21:35:01.828Z,32.80
2022-11-20T21:37:47.474Z,33.67
2022-11-20T21:40:33.614Z,29.92
2022-11-20T21:43:19.016Z,30.77
2022-11-20T21:46:13.525Z,30.95
2022-11-20T21:48:58.985Z,30.88
2022-11-20T21:51:44.633Z,31.75
2022-11-20T21:54:31.368Z,31.33
2022-11-20T21:57:17.098Z,33.40
2022-11-20T22:00:04.599Z,34.55
2022-11-20T22:02:55.656Z,33.45
2022-11-20T22:05:42.561Z,33.67
2022-11-20T22:08:28.220Z,33.53
2022-11-20T22:11:16.549Z,33.38
2022-11-20T22:14:20.634Z,32.17
2022-11-20T22:17:06.179Z,30.15
2022-11-20T22:19:51.904Z,31.42
2022-11-20T22:22:39.733Z,30.70
2022-11-20T22:25:25.331Z,34.60
2022-11-20T22:28:11.328Z,32.72
2022-11-20T22:31:01.569Z,30.15
2022-11-20T22:33:47.379Z,29.88
2022-11-20T22:36:36.678Z,28.33
2022-11-20T22:39:23.065Z,26.75
2022-11-20T22:42:08.413Z,26.27
2022-11-20T22:44:54.184Z,27.13
2022-11-20T22:47:40.223Z,25.70
2022-11-20T22:50:25.606Z,27.77
2022-11-20T22:53:11.438Z,29.33
2022-11-20T22:55:57.021Z,30.27
2022-11-20T22:58:45.095Z,30.77
2022-11-20T23:01:33.122Z,27.58
2022-11-20T23:04:19.072Z,27.95
2022-11-20T23:07:04.397Z,28.77
2022-11-20T23:09:50.064Z,26.63
2022-11-20T23:12:35.737Z,27.50
2022-11-20T23:15:21.451Z,28.15
2022-11-20T23:18:07.225Z,25.83
2022-11-20T23:20:52.990Z,27.38
2022-11-20T23:23:39.019Z,26.25
2022-11-20T23:26:29.964Z,24.70
2022-11-20T23:29:15.583Z,25.13
2022-11-20T23:32:01.517Z,23.52
2022-11-20T23:34:47.257Z,23.40
2022-11-20T23:37:32.852Z,22.83
2022-11-20T23:40:18.464Z,24.27
2022-11-20T23:43:15.833Z,22.92
2022-11-20T23:46:02.338Z,22.10
2022-11-20T23:48:47.688Z,22.85
2022-11-20T23:51:33.402Z,22.90
2022-11-20T23:54:19.019Z,22.80
2022-11-20T23:57:04.644Z,22.25
2022-11-20T23:59:50.277Z,21.80
